• Join FlightAware (Why Join?)
  • Login
  • US Flag 
07:08AM EDT


 

Airport Tracker/Info


-or-


 

Live Flight TrackerFlight Track Log ✈ N4846L ✈ 04-Aug-2013 ✈ KLNS - KJYO

Flight Track Log - Related Links

Times and Time Zones

All times are in EDT time to prevent confusion due to time zone crossing. See the N4846L flight status page for this flight to view local times or setup timezone preferences in your user account.

Time Position Orientation Groundspeed Altitude Reporting Facility
EDT Latitude Longitude Course Direction KTS MPH feet Rate Location/Type
02:46PM 40.0022 -76.4426 223° Southwest  Level Estimated
02:47PM 39.9781 -76.4722 223° Southwest  Level Estimated
02:48PM 39.9540 -76.5017 223° Southwest  Level Estimated
02:48PM 39.8000 -76.6500 223° Southwest 156 180 2,900  Level Potomac TRACON
02:49PM 39.9299 -76.5312 223° Southwest  Level Estimated
02:49PM 39.7667 -76.6667 201° Southwest 117 135 2,900  Level Potomac TRACON
02:50PM 39.9058 -76.5608 223° Southwest  Level Estimated
02:50PM 39.7500 -76.6833 218° Southwest 118 136 3,000  Level Potomac TRACON
02:51PM 39.8818 -76.5903 223° Southwest  Level Estimated
02:51PM 39.7167 -76.7167 218° Southwest 121 139 2,900  Level Potomac TRACON
02:52PM 39.8577 -76.6197 223° Southwest  Level Estimated
02:52PM 39.7000 -76.7333 218° Southwest 116 133 3,000  Level Potomac TRACON
02:53PM 39.8335 -76.6492 223° Southwest  Level Estimated
02:53PM 39.6667 -76.7667 218° Southwest 120 138 2,900  Level Potomac TRACON
02:54PM 39.6500 -76.7833 218° Southwest 120 138 2,900  Level Potomac TRACON
02:55PM 39.6167 -76.8167 218° Southwest 121 139 3,000  Climbing Potomac TRACON
02:56PM 39.5833 -76.8333 201° Southwest 125 144 2,900  Descending Potomac TRACON
02:57PM 39.5667 -76.8667 237° Southwest 115 132 3,000  Climbing Potomac TRACON
02:58PM 39.5333 -76.8833 201° Southwest 121 139 3,000  Level Potomac TRACON
02:59PM 39.5000 -76.9000 201° Southwest 121 139 3,000 -60 Level Potomac TRACON
03:00PM 39.4833 -76.9333 237° Southwest 120 138 2,900 -60 Descending Potomac TRACON
03:01PM 39.4500 -76.9667 218° Southwest 119 137 2,900  Level Potomac TRACON
03:02PM 39.4167 -76.9833 201° Southwest 121 139 2,900  Level Potomac TRACON
03:03PM 39.4000 -77.0000 218° Southwest 120 138 2,900  Level Potomac TRACON
03:04PM 39.3667 -77.0333 218° Southwest 120 138 2,900  Level Potomac TRACON
03:05PM 39.3333 -77.0500 201° Southwest 118 136 3,000  Climbing Potomac TRACON
03:06PM 39.3167 -77.0833 237° Southwest 131 151 2,900 -60 Descending Potomac TRACON
03:07PM 39.2833 -77.1000 201° Southwest 114 131 2,900  Level Potomac TRACON
03:08PM 39.2500 -77.1167 201° Southwest 117 135 2,900  Level Potomac TRACON
03:09PM 39.2333 -77.1500 237° Southwest 117 135 3,000 -60 Climbing Potomac TRACON
03:10PM 39.2000 -77.1667 201° Southwest 124 143 2,800 -300 Descending Potomac TRACON
03:11PM 39.1833 -77.2000 237° Southwest 117 135 2,500 -180 Descending Potomac TRACON
03:12PM 39.1500 -77.2167 201° Southwest 120 138 2,500 -60 Level Potomac TRACON
03:13PM 39.1167 -77.2500 218° Southwest 120 138 2,400 -60 Descending Potomac TRACON
03:14PM 39.1000 -77.2667 218° Southwest 111 128 2,400  Level Potomac TRACON
03:15PM 39.0667 -77.2833 201° Southwest 111 128 2,400  Level Potomac TRACON
03:16PM 39.0500 -77.3167 237° Southwest 112 129 2,400  Level Potomac TRACON
03:17PM 39.0167 -77.3333 201° Southwest 120 138 2,500  Climbing Potomac TRACON
03:18PM 38.9833 -77.3333 180° South 134 154 2,500 -60 Level Potomac TRACON
03:19PM 38.9500 -77.3500 201° Southwest 132 152 2,400 -180 Descending Potomac TRACON
03:20PM 38.9167 -77.3500 180° South 131 151 2,200 -240 Descending Potomac TRACON
03:21PM 38.8667 -77.3500 180° South 132 152 2,000 -120 Descending Potomac TRACON
03:22PM 38.8333 -77.3500 180° South 131 151 2,000  Level Potomac TRACON
03:23PM 38.8000 -77.3500 180° South 127 146 2,000 -60 Level Potomac TRACON
03:24PM 38.7667 -77.3667 201° Southwest 128 147 1,900 -60 Descending Potomac TRACON
03:25PM 38.7333 -77.3667 180° South 123 142 1,900 -240 Level Potomac TRACON
03:26PM 38.7167 -77.4000 237° Southwest 110 127 1,500 -360 Descending Potomac TRACON
03:27PM 38.7167 -77.4333 270° West 108 124 1,200 -300 Descending Potomac TRACON
03:28PM 38.7000 -77.4833 247° West 105 121 1,000 -240 Descending Potomac TRACON
03:30PM 38.7688 -77.4958 352° North  Level FlightAware Approximate
03:37PM 39.0224 -77.5419 352° North  Level FlightAware Approximate
03:38PM 39.0581 -77.5519 335° Northwest  Level Estimated
03:39PM 39.0667 -77.5500 335° Northwest  Level FlightAware Approximate
03:40PM 39.0780 -77.5575 335° Northwest  Level Estimated